Terminal Aerodrome Forecast
Issued by NWS

Home | Current Version | Previous Version | Text Only | Print | Product List | Glossary On
Versions: 1 2 3 4 5 6 7 8 9 10 11 12 13
331
FTUS41 KILN 240520
TAFLCK
TAF
KLCK 240520Z 2406/2506 05008KT P6SM SCT250
     FM241800 08011KT P6SM SCT200
     FM250100 10008KT P6SM FEW050 BKN200=

USA.gov is the U.S. government's official web portal to all federal, state and local government web resources and services.